Time;durP1;ratioP1;P1;durP2;ratioP2;P2;SDS_P1;SDS_P2;PMS_P1;PMS_P2;Temp;Humidity;BMP_temperature;BMP_pressure;BME280_temperature;BME280_humidity;BME280_pressure;Samples;Min_cycle;Max_cycle;Signal;HPM_P1;HPM_P2
2023/01/10 00:01:35;;;;;;;26.45;3.80;;;4.70;99.90;;;;;;5085775;28;20055;-81
2023/01/10 00:04:01;;;;;;;40.08;4.85;;;4.60;99.90;;;;;;5083712;28;20052;-80
2023/01/10 00:06:27;;;;;;;34.30;4.85;;;4.50;99.90;;;;;;5081296;28;20057;-83
2023/01/10 00:08:52;;;;;;;36.28;5.65;;;4.40;99.90;;;;;;5083001;28;20044;-81
2023/01/10 00:14:03;;;;;;;39.88;4.65;;;4.30;99.90;;;;;;5082865;28;20044;-80
2023/01/10 00:16:28;;;;;;;39.20;4.10;;;4.20;99.90;;;;;;5085993;28;20052;-81
2023/01/10 00:18:54;;;;;;;33.28;4.57;;;4.10;99.90;;;;;;5085464;28;20393;-80
2023/01/10 00:21:20;;;;;;;32.03;4.47;;;4.00;99.90;;;;;;5085710;28;20075;-80
2023/01/10 00:23:47;;;;;;;30.17;4.43;;;4.10;99.90;;;;;;5084169;28;20048;-80
2023/01/10 00:26:13;;;;;;;31.42;4.40;;;3.90;99.90;;;;;;5100866;28;20048;-79
2023/01/10 00:28:40;;;;;;;33.25;3.90;;;3.90;99.90;;;;;;5082185;28;20048;-80
2023/01/10 00:31:07;;;;;;;33.80;4.05;;;3.90;99.90;;;;;;5081059;28;20054;-79
2023/01/10 00:33:34;;;;;;;41.90;6.75;;;4.00;99.90;;;;;;5082542;28;20074;-81
2023/01/10 00:36:01;;;;;;;42.78;6.03;;;4.10;99.90;;;;;;5083697;28;20127;-80
2023/01/10 00:38:27;;;;;;;41.15;4.13;;;4.20;99.90;;;;;;5081599;28;20078;-80
2023/01/10 00:40:53;;;;;;;33.60;4.60;;;4.30;99.90;;;;;;5080130;28;20044;-81
2023/01/10 00:46:03;;;;;;;28.08;5.10;;;4.40;99.90;;;;;;5078790;28;20044;-81
2023/01/10 00:48:29;;;;;;;40.40;5.07;;;4.50;99.90;;;;;;5080530;28;20047;-82
2023/01/10 00:50:55;;;;;;;36.95;4.35;;;4.60;99.90;;;;;;5079548;28;20067;-80
2023/01/10 00:53:21;;;;;;;27.88;4.43;;;4.70;99.90;;;;;;5079526;28;20048;-80
2023/01/10 00:55:47;;;;;;;38.97;4.15;;;4.70;99.90;;;;;;5080264;28;20051;-81
2023/01/10 00:58:14;;;;;;;37.60;4.63;;;4.80;99.90;;;;;;5081388;28;20135;-82
2023/01/10 01:00:40;;;;;;;43.45;4.03;;;4.80;99.90;;;;;;5064150;28;20037;-81
2023/01/10 01:03:06;;;;;;;37.35;3.97;;;4.90;99.90;;;;;;5079625;28;20088;-81
2023/01/10 01:05:32;;;;;;;39.97;3.75;;;4.90;99.90;;;;;;5079967;28;20394;-81
2023/01/10 01:07:58;;;;;;;36.70;4.95;;;5.00;99.90;;;;;;5080936;28;20056;-81
2023/01/10 01:10:27;;;;;;;34.78;5.15;;;5.00;99.90;;;;;;5078909;28;20059;-81
2023/01/10 01:12:57;;;;;;;26.65;4.05;;;5.00;99.90;;;;;;5080377;28;20102;-81
2023/01/10 01:15:24;;;;;;;34.15;5.32;;;5.00;99.90;;;;;;5080120;28;20044;-81
2023/01/10 01:17:49;;;;;;;31.43;3.23;;;5.10;99.90;;;;;;5079395;28;20123;-81
2023/01/10 01:20:15;;;;;;;46.25;5.15;;;5.10;99.90;;;;;;5064092;28;20771;-81
2023/01/10 01:22:41;;;;;;;39.50;5.15;;;5.10;99.90;;;;;;5079262;28;20048;-80
2023/01/10 01:25:07;;;;;;;27.05;3.58;;;5.10;99.90;;;;;;5078349;28;20037;-82
2023/01/10 01:27:37;;;;;;;34.53;6.22;;;5.20;99.90;;;;;;5077537;28;20124;-82
2023/01/10 01:30:04;;;;;;;28.05;3.47;;;5.30;99.90;;;;;;5075029;28;20131;-80
2023/01/10 01:32:30;;;;;;;40.53;3.47;;;5.30;99.90;;;;;;5090530;28;20048;-82
2023/01/10 01:34:56;;;;;;;25.55;3.45;;;5.30;99.90;;;;;;5056860;28;20500;-82
2023/01/10 01:37:21;;;;;;;33.70;3.30;;;5.30;99.90;;;;;;5074459;28;20056;-81
2023/01/10 01:39:47;;;;;;;31.08;3.55;;;5.30;99.90;;;;;;5074626;28;20056;-82
2023/01/10 01:42:39;;;;;;;42.85;4.15;;;5.20;99.90;;;;;;5077935;28;20134;-81
2023/01/10 01:45:08;;;;;;;38.05;3.03;;;5.10;99.90;;;;;;5075433;28;20054;-81
2023/01/10 01:47:45;;;;;;;54.30;4.18;;;5.10;99.90;;;;;;5077885;28;20131;-80
2023/01/10 01:50:23;;;;;;;27.98;4.47;;;5.00;99.90;;;;;;5111258;28;20044;-82
2023/01/10 01:52:52;;;;;;;26.33;3.75;;;5.00;99.90;;;;;;5077365;28;20036;-83
2023/01/10 01:55:18;;;;;;;22.35;2.80;;;5.00;99.90;;;;;;5077278;28;20063;-81
2023/01/10 01:57:45;;;;;;;24.85;2.63;;;4.90;99.90;;;;;;5077356;28;20045;-80
2023/01/10 02:00:11;;;;;;;;;;;4.90;99.90;;;;;;5078397;28;20087;-81
2023/01/10 02:02:45;;;;;;;34.17;3.65;;;4.90;99.90;;;;;;5078877;28;19924;-81
2023/01/10 02:05:14;;;;;;;50.67;4.32;;;4.80;99.90;;;;;;5079072;28;20043;-81
2023/01/10 02:07:47;;;;;;;49.08;4.30;;;4.80;99.90;;;;;;5077367;28;20048;-78
2023/01/10 02:10:34;;;;;;;40.00;3.90;;;4.70;99.90;;;;;;5081017;28;20048;-81
2023/01/10 02:13:04;;;;;;;33.95;3.40;;;4.80;99.90;;;;;;5079210;28;20113;-81
2023/01/10 02:15:30;;;;;;;32.22;3.90;;;4.80;99.90;;;;;;5080803;28;20055;-81
2023/01/10 02:17:56;;;;;;;27.02;3.70;;;4.90;99.90;;;;;;5076476;28;20508;-70
2023/01/10 02:20:23;;;;;;;29.73;3.87;;;4.90;99.90;;;;;;5058572;28;20049;-71
2023/01/10 02:23:26;;;;;;;41.13;5.95;;;4.90;99.90;;;;;;5058721;28;20044;-71
2023/01/10 02:26:23;;;;;;;39.40;4.78;;;4.80;99.90;;;;;;5075012;28;20059;-71
2023/01/10 02:29:04;;;;;;;34.05;4.03;;;4.80;99.90;;;;;;5076152;28;20052;-71
2023/01/10 02:31:50;;;;;;;40.63;4.72;;;4.70;99.90;;;;;;5077135;28;20047;-71
2023/01/10 02:34:23;;;;;;;40.83;4.25;;;4.60;99.90;;;;;;5059179;28;20147;-71
2023/01/10 02:37:26;;;;;;;44.05;4.40;;;4.60;99.90;;;;;;5076657;28;20048;-72
2023/01/10 02:39:54;;;;;;;34.25;3.53;;;4.50;99.90;;;;;;5076471;28;20036;-71
2023/01/10 02:42:29;;;;;;;46.05;4.93;;;4.40;99.90;;;;;;5058169;28;20429;-71
2023/01/10 02:45:10;;;;;;;36.67;3.92;;;4.40;99.90;;;;;;5076080;28;20105;-72
2023/01/10 02:47:38;;;;;;;38.60;4.13;;;4.40;99.90;;;;;;5076497;28;20052;-71
2023/01/10 02:50:28;;;;;;;35.85;3.92;;;4.60;99.90;;;;;;5075225;28;20052;-71
2023/01/10 02:52:58;;;;;;;29.52;3.63;;;4.60;99.90;;;;;;5074774;28;20052;-71
2023/01/10 02:55:55;;;;;;;37.55;5.57;;;4.50;99.90;;;;;;5075725;28;20048;-71
2023/01/10 02:58:26;;;;;;;27.38;3.47;;;4.60;99.90;;;;;;5072211;28;20131;-71
2023/01/10 03:01:23;;;;;;;38.72;4.25;;;4.60;99.90;;;;;;5075813;28;20041;-70
2023/01/10 03:04:23;;;;;;;37.88;4.10;;;4.60;99.90;;;;;;5066517;28;20052;-73
2023/01/10 03:06:55;;;;;;;36.58;3.60;;;4.60;99.90;;;;;;5075863;28;20056;-74
2023/01/10 03:09:49;;;;;;;32.88;3.15;;;4.70;99.90;;;;;;5074518;28;20071;-71
2023/01/10 03:12:43;;;;;;;24.98;3.70;;;4.70;99.90;;;;;;5057779;28;20105;-71
2023/01/10 03:15:12;;;;;;;42.92;3.95;;;4.80;99.90;;;;;;5056856;28;20068;-73
2023/01/10 03:17:39;;;;;;;30.98;4.40;;;4.90;99.90;;;;;;5057720;28;20431;-73
2023/01/10 03:20:06;;;;;;;36.53;4.40;;;5.00;99.90;;;;;;5074843;28;20041;-72
2023/01/10 03:22:36;;;;;;;34.03;3.20;;;5.10;99.90;;;;;;5074329;28;20040;-72
2023/01/10 03:25:05;;;;;;;28.85;3.17;;;5.20;99.90;;;;;;5076241;28;20080;-72
2023/01/10 03:27:48;;;;;;;38.78;3.60;;;5.20;99.90;;;;;;5074579;28;20464;-71
2023/01/10 03:30:40;;;;;;;33.28;3.83;;;5.20;99.90;;;;;;5074940;28;20450;-72
2023/01/10 03:33:07;;;;;;;30.17;3.47;;;5.20;99.90;;;;;;5075817;28;20155;-73
2023/01/10 03:35:56;;;;;;;38.77;4.53;;;5.20;99.90;;;;;;5073883;28;20055;-70
2023/01/10 03:38:42;;;;;;;29.73;4.00;;;5.20;99.90;;;;;;5075481;28;20290;-72
2023/01/10 03:41:39;;;;;;;33.85;3.42;;;5.20;99.90;;;;;;5107732;28;20127;-73
2023/01/10 03:47:20;;;;;;;30.80;3.40;;;5.40;99.90;;;;;;5074366;28;20489;-72
2023/01/10 03:49:49;;;;;;;31.42;3.10;;;5.30;99.90;;;;;;5075732;28;20435;-72
2023/01/10 03:52:17;;;;;;;31.45;3.25;;;5.30;99.90;;;;;;5074724;28;20405;-72
2023/01/10 03:54:44;;;;;;;26.25;3.40;;;5.30;99.90;;;;;;5074658;28;20049;-71
2023/01/10 03:57:24;;;;;;;28.30;3.00;;;5.30;99.90;;;;;;5074083;28;20428;-72
2023/01/10 03:59:55;;;;;;;29.00;2.80;;;5.20;99.90;;;;;;5074558;28;20105;-70
2023/01/10 04:02:21;;;;;;;36.38;4.03;;;5.10;99.90;;;;;;5057220;28;20140;-71
2023/01/10 04:04:46;;;;;;;37.90;3.28;;;5.10;99.90;;;;;;5057011;28;20447;-72
2023/01/10 04:07:12;;;;;;;30.58;3.22;;;5.10;99.90;;;;;;5072799;28;20370;-71
2023/01/10 04:09:38;;;;;;;33.75;3.50;;;5.20;99.90;;;;;;5073155;28;20098;-71
2023/01/10 04:12:04;;;;;;;21.27;2.30;;;5.20;99.90;;;;;;5056475;28;20115;-71
2023/01/10 04:14:31;;;;;;;22.83;3.55;;;5.30;99.90;;;;;;5074171;28;20056;-70
2023/01/10 04:16:57;;;;;;;39.13;2.83;;;5.40;99.90;;;;;;5073186;28;20066;-72
2023/01/10 04:19:23;;;;;;;29.73;3.78;;;5.40;99.90;;;;;;5073663;28;20435;-70
2023/01/10 04:21:48;;;;;;;38.63;3.78;;;5.40;99.90;;;;;;5072692;28;20083;-70
2023/01/10 04:24:14;;;;;;;33.50;3.15;;;5.50;99.90;;;;;;5074568;28;20091;-71
2023/01/10 04:26:40;;;;;;;27.48;3.03;;;5.50;99.90;;;;;;5072808;28;20123;-70
2023/01/10 04:29:06;;;;;;;32.15;3.40;;;5.50;99.90;;;;;;5107534;28;20048;-70
2023/01/10 04:31:32;;;;;;;37.10;3.25;;;5.60;99.90;;;;;;5072824;28;20071;-70
2023/01/10 04:33:57;;;;;;;34.35;4.05;;;5.60;99.90;;;;;;5072758;28;20044;-70
2023/01/10 04:36:23;;;;;;;40.72;4.25;;;5.60;99.90;;;;;;5073780;28;20052;-70
2023/01/10 04:38:49;;;;;;;31.10;3.67;;;5.50;99.90;;;;;;5074205;28;20125;-70
2023/01/10 04:41:15;;;;;;;39.42;3.83;;;5.50;99.90;;;;;;5073703;28;20389;-71
2023/01/10 04:43:40;;;;;;;40.95;4.88;;;5.40;99.90;;;;;;5072843;28;20078;-71
2023/01/10 04:46:06;;;;;;;42.58;4.32;;;5.40;99.90;;;;;;5056022;28;20048;-73
2023/01/10 04:48:33;;;;;;;45.58;4.10;;;5.40;99.90;;;;;;5072754;28;20052;-70
2023/01/10 04:50:59;;;;;;;34.00;3.03;;;5.40;99.90;;;;;;5072542;28;20044;-71
2023/01/10 04:53:24;;;;;;;32.25;3.30;;;5.30;99.90;;;;;;5089375;28;20045;-70
2023/01/10 04:55:50;;;;;;;39.55;3.50;;;5.30;99.90;;;;;;5073590;28;20416;-70
2023/01/10 04:58:16;;;;;;;47.08;5.05;;;5.20;99.90;;;;;;5072806;28;20040;-71
2023/01/10 05:00:41;;;;;;;29.15;3.50;;;5.30;99.90;;;;;;5071988;28;20070;-71
2023/01/10 05:03:07;;;;;;;30.52;3.90;;;5.30;99.90;;;;;;5055835;28;20040;-71
2023/01/10 05:05:33;;;;;;;40.63;5.50;;;5.40;99.90;;;;;;5074305;28;20373;-71
2023/01/10 05:07:59;;;;;;;41.95;4.57;;;5.40;99.90;;;;;;5073347;28;20408;-71
2023/01/10 05:10:25;;;;;;;38.63;4.60;;;5.40;99.90;;;;;;5073519;28;20041;-71
2023/01/10 05:12:50;;;;;;;37.00;3.95;;;5.40;99.90;;;;;;5073480;28;20477;-71
2023/01/10 05:15:16;;;;;;;33.90;3.20;;;5.40;99.90;;;;;;5073603;28;20132;-70
2023/01/10 05:17:42;;;;;;;37.13;4.60;;;5.40;99.90;;;;;;5073491;28;20397;-70
2023/01/10 05:20:08;;;;;;;47.45;4.78;;;5.40;99.90;;;;;;5055688;28;20053;-71
2023/01/10 05:22:34;;;;;;;37.55;5.07;;;5.30;99.90;;;;;;5055471;28;20048;-70
2023/01/10 05:25:00;;;;;;;33.97;3.55;;;5.30;99.90;;;;;;5072221;28;20098;-71
2023/01/10 05:27:26;;;;;;;33.72;4.65;;;5.40;99.90;;;;;;5072030;28;20048;-71
2023/01/10 05:29:53;;;;;;;47.13;4.65;;;5.40;99.90;;;;;;5072268;28;20122;-70
2023/01/10 05:32:18;;;;;;;42.45;4.22;;;5.40;99.90;;;;;;5072166;28;20477;-70
2023/01/10 05:34:44;;;;;;;46.97;5.05;;;5.50;99.90;;;;;;5073192;28;20052;-69
2023/01/10 05:37:10;;;;;;;34.70;4.32;;;5.40;99.90;;;;;;5055272;28;20048;-71
2023/01/10 05:39:35;;;;;;;39.63;5.38;;;5.30;99.90;;;;;;5054748;28;20045;-70
2023/01/10 05:42:02;;;;;;;31.83;4.32;;;5.30;99.90;;;;;;5055223;28;20040;-71
2023/01/10 05:44:28;;;;;;;45.35;5.10;;;5.30;99.90;;;;;;5071896;28;20401;-71
2023/01/10 05:46:54;;;;;;;39.58;3.70;;;5.40;99.90;;;;;;5073005;28;20085;-70
2023/01/10 05:49:19;;;;;;;45.90;5.30;;;5.40;99.90;;;;;;5071822;28;20044;-71
2023/01/10 05:51:45;;;;;;;44.72;4.28;;;5.50;99.90;;;;;;5072024;28;20047;-70
2023/01/10 05:54:11;;;;;;;34.90;4.97;;;5.50;99.90;;;;;;5055269;28;20091;-72
2023/01/10 05:56:37;;;;;;;36.60;4.50;;;5.50;99.90;;;;;;5072726;28;20086;-70
2023/01/10 05:59:03;;;;;;;49.22;4.85;;;5.50;99.90;;;;;;5055248;28;20037;-70
2023/01/10 06:01:29;;;;;;;38.90;5.57;;;5.50;99.90;;;;;;5071689;28;20392;-70
2023/01/10 06:03:54;;;;;;;35.25;3.53;;;5.50;99.90;;;;;;5055013;28;20417;-70
2023/01/10 06:06:20;;;;;;;40.45;5.93;;;5.50;99.90;;;;;;5071613;28;20059;-70
2023/01/10 06:08:46;;;;;;;37.28;4.30;;;5.40;99.90;;;;;;5055503;28;20125;-70
2023/01/10 06:11:11;;;;;;;40.30;3.67;;;5.30;99.90;;;;;;5055479;28;20376;-71
2023/01/10 06:13:37;;;;;;;40.60;3.72;;;5.30;99.90;;;;;;5073712;28;20037;-71
2023/01/10 06:16:03;;;;;;;34.53;5.05;;;5.20;99.90;;;;;;5054848;28;20059;-71
2023/01/10 06:18:29;;;;;;;33.05;4.45;;;5.10;99.90;;;;;;5072655;28;20123;-71
2023/01/10 06:20:55;;;;;;;47.42;6.90;;;5.10;99.90;;;;;;5054876;28;20123;-71
2023/01/10 06:23:20;;;;;;;47.58;5.45;;;5.10;99.90;;;;;;5054977;28;20420;-71
2023/01/10 06:25:46;;;;;;;36.38;4.22;;;5.10;99.90;;;;;;5071810;28;20519;-71
2023/01/10 06:28:13;;;;;;;37.22;5.82;;;5.00;99.90;;;;;;5074837;28;20075;-70
2023/01/10 06:30:42;;;;;;;46.83;4.82;;;4.90;99.90;;;;;;5075594;28;20047;-70
2023/01/10 06:33:09;;;;;;;30.75;4.00;;;4.90;99.90;;;;;;5076154;28;20193;-70
2023/01/10 06:35:35;;;;;;;37.78;4.60;;;4.90;99.90;;;;;;5076092;28;20401;-70
2023/01/10 06:38:01;;;;;;;29.52;4.30;;;4.80;99.90;;;;;;5075735;28;20117;-71
2023/01/10 06:40:27;;;;;;;36.08;4.00;;;4.80;99.90;;;;;;5058087;28;20041;-71
2023/01/10 06:42:53;;;;;;;40.87;4.00;;;4.80;99.90;;;;;;5076055;28;20396;-70
2023/01/10 06:45:19;;;;;;;52.80;4.60;;;4.70;99.90;;;;;;5076418;28;20041;-70
2023/01/10 06:47:45;;;;;;;32.35;4.43;;;4.70;99.90;;;;;;5058103;28;20448;-70
2023/01/10 06:50:12;;;;;;;39.72;4.70;;;4.70;99.90;;;;;;5074520;28;20130;-70
2023/01/10 06:52:38;;;;;;;49.17;7.20;;;4.70;99.90;;;;;;5076078;28;20078;-70
2023/01/10 06:55:04;;;;;;;49.13;4.82;;;4.70;99.90;;;;;;5058114;28;20053;-71
2023/01/10 06:57:32;;;;;;;52.65;5.28;;;4.70;99.90;;;;;;5076163;28;20358;-71
2023/01/10 06:59:58;;;;;;;45.40;6.75;;;4.70;99.90;;;;;;5074718;28;20041;-71
2023/01/10 07:02:24;;;;;;;43.95;6.13;;;4.70;99.90;;;;;;5075542;28;20049;-71
2023/01/10 07:04:50;;;;;;;45.03;6.28;;;4.80;99.90;;;;;;5074397;28;20040;-70
2023/01/10 07:07:15;;;;;;;50.80;6.60;;;4.80;99.90;;;;;;5074293;28;20106;-70
2023/01/10 07:09:41;;;;;;;40.35;5.68;;;4.70;99.90;;;;;;5074172;28;20131;-71
2023/01/10 07:12:07;;;;;;;38.17;5.00;;;4.80;99.90;;;;;;5074224;28;20049;-69
2023/01/10 07:14:33;;;;;;;48.47;6.30;;;4.90;99.90;;;;;;5075839;28;20054;-71
2023/01/10 07:16:58;;;;;;;37.80;5.50;;;4.90;99.90;;;;;;5074364;28;20080;-70
2023/01/10 07:19:24;;;;;;;49.83;5.50;;;5.00;99.90;;;;;;5041149;28;20049;-72
2023/01/10 07:21:50;;;;;;;36.03;6.03;;;5.00;99.90;;;;;;5075191;28;20518;-69
2023/01/10 07:24:16;;;;;;;62.20;8.00;;;4.90;99.90;;;;;;5074476;28;20451;-70
2023/01/10 07:26:41;;;;;;;38.13;5.93;;;5.00;99.90;;;;;;5074916;28;20045;-71
2023/01/10 07:29:07;;;;;;;42.05;4.85;;;5.00;99.90;;;;;;5075023;28;20044;-70
2023/01/10 07:31:33;;;;;;;43.55;5.20;;;5.00;99.90;;;;;;5057660;28;20406;-71
2023/01/10 07:33:59;;;;;;;46.90;5.90;;;5.00;99.90;;;;;;5074747;28;20506;-70
2023/01/10 07:36:24;;;;;;;54.60;5.10;;;5.00;99.90;;;;;;5074254;28;20049;-70
2023/01/10 07:38:50;;;;;;;49.25;6.35;;;4.90;99.90;;;;;;5072810;28;20049;-71
2023/01/10 07:41:16;;;;;;;41.70;5.65;;;4.90;99.90;;;;;;5107390;28;20056;-71
2023/01/10 07:43:42;;;;;;;50.30;6.15;;;4.90;99.90;;;;;;5057082;28;20052;-71
2023/01/10 07:46:10;;;;;;;55.30;5.22;;;4.90;99.90;;;;;;5074702;28;20135;-70
2023/01/10 07:48:37;;;;;;;40.63;5.22;;;4.90;99.90;;;;;;5073541;28;20058;-71
2023/01/10 07:51:04;;;;;;;37.97;5.95;;;4.80;99.90;;;;;;5073643;28;20048;-71
2023/01/10 07:53:30;;;;;;;50.22;5.25;;;4.80;99.90;;;;;;5073546;28;20080;-71
2023/01/10 07:56:00;;;;;;;48.60;6.70;;;4.80;99.90;;;;;;5074472;28;20102;-70
2023/01/10 07:58:28;;;;;;;56.58;7.22;;;4.90;99.90;;;;;;5073143;28;20060;-71
2023/01/10 08:01:02;;;;;;;43.92;5.63;;;4.90;99.90;;;;;;5073179;28;20127;-71
2023/01/10 08:03:31;;;;;;;56.45;6.32;;;4.80;99.90;;;;;;5056431;28;20106;-71
2023/01/10 08:06:03;;;;;;;47.95;6.28;;;4.80;99.90;;;;;;5040183;28;20048;-71
2023/01/10 08:08:29;;;;;;;52.13;6.20;;;4.70;99.90;;;;;;5057506;28;20091;-71
2023/01/10 08:10:56;;;;;;;52.37;5.63;;;4.80;99.90;;;;;;5073123;28;20445;-71
2023/01/10 08:13:22;;;;;;;59.72;6.97;;;4.80;99.90;;;;;;5073134;28;20118;-70
2023/01/10 08:15:51;;;;;;;50.80;5.60;;;4.80;99.90;;;;;;5074089;28;20082;-71
2023/01/10 08:18:18;;;;;;;53.33;6.43;;;4.80;99.90;;;;;;5056751;28;20105;-72
2023/01/10 08:20:46;;;;;;;;;;;4.80;99.90;;;;;;5073197;28;20127;-71
2023/01/10 08:23:14;;;;;;;50.03;6.72;;;4.80;99.90;;;;;;5074049;28;19971;-71
2023/01/10 08:25:40;;;;;;;47.08;5.82;;;4.90;99.90;;;;;;5056561;28;20037;-71
2023/01/10 08:28:06;;;;;;;54.45;6.88;;;4.90;99.90;;;;;;5073639;28;20045;-71
2023/01/10 08:30:31;;;;;;;49.55;5.38;;;4.90;99.90;;;;;;5072446;28;20079;-71
2023/01/10 08:33:00;;;;;;;45.00;5.63;;;4.90;99.90;;;;;;5072698;28;20048;-71
2023/01/10 08:35:26;;;;;;;48.65;6.05;;;4.90;99.90;;;;;;5055955;28;20059;-71
2023/01/10 08:37:51;;;;;;;46.67;5.57;;;5.00;99.90;;;;;;5072703;28;20044;-71
2023/01/10 08:40:17;;;;;;;46.35;5.78;;;5.10;99.90;;;;;;5072547;28;20044;-70
2023/01/10 08:42:43;;;;;;;48.08;5.15;;;5.20;99.90;;;;;;5073317;28;20131;-71
2023/01/10 08:45:09;;;;;;;39.92;4.97;;;5.30;99.90;;;;;;5073699;28;20049;-70
2023/01/10 08:47:35;;;;;;;56.97;5.85;;;5.40;99.90;;;;;;5056150;28;20059;-70
2023/01/10 08:50:01;;;;;;;57.13;5.68;;;5.50;99.90;;;;;;5055246;28;20488;-70
2023/01/10 08:52:27;;;;;;;64.50;6.97;;;5.70;99.90;;;;;;5072967;28;20044;-71
2023/01/10 08:54:53;;;;;;;39.53;4.88;;;5.70;99.90;;;;;;5055854;28;20133;-71
2023/01/10 08:57:18;;;;;;;70.00;6.88;;;5.80;99.90;;;;;;5055897;28;20477;-70
2023/01/10 08:59:44;;;;;;;52.53;6.20;;;5.90;99.90;;;;;;5055422;28;20102;-71
2023/01/10 09:02:12;;;;;;;43.47;5.47;;;6.00;99.90;;;;;;5073308;28;20048;-72
2023/01/10 09:04:38;;;;;;;54.17;7.32;;;6.00;99.90;;;;;;5073156;28;20350;-72
2023/01/10 09:07:04;;;;;;;45.97;5.05;;;6.10;99.90;;;;;;5072004;28;20056;-69
2023/01/10 09:09:30;;;;;;;51.70;6.75;;;6.10;99.90;;;;;;5072679;28;20045;-71
2023/01/10 09:11:56;;;;;;;56.55;6.05;;;6.10;99.90;;;;;;5106152;28;20135;-70
2023/01/10 09:14:22;;;;;;;46.20;5.43;;;6.20;99.90;;;;;;5073140;28;20048;-70
2023/01/10 09:16:50;;;;;;;53.38;6.45;;;6.20;99.90;;;;;;5054934;28;20044;-70
2023/01/10 09:19:16;;;;;;;43.33;6.15;;;6.30;99.90;;;;;;5072202;28;20053;-71
2023/01/10 09:21:42;;;;;;;52.15;6.43;;;6.30;99.90;;;;;;5073019;28;20118;-71
2023/01/10 09:24:08;;;;;;;46.17;5.70;;;6.40;99.90;;;;;;5073170;28;20044;-71
2023/01/10 09:26:34;;;;;;;46.35;6.85;;;6.40;99.90;;;;;;5073245;28;20076;-71
2023/01/10 09:28:59;;;;;;;66.97;7.88;;;6.50;99.90;;;;;;5071918;28;20401;-71
2023/01/10 09:31:25;;;;;;;49.97;7.40;;;6.50;99.90;;;;;;5072243;28;20083;-72
2023/01/10 09:33:51;;;;;;;49.17;6.85;;;6.60;99.90;;;;;;5073144;28;20396;-70
2023/01/10 09:36:17;;;;;;;54.33;7.30;;;6.60;99.90;;;;;;5072212;28;20048;-71
2023/01/10 09:38:43;;;;;;;59.90;8.55;;;6.70;99.90;;;;;;5071862;28;20083;-72
2023/01/10 09:41:47;;;;;;;63.20;7.32;;;6.70;99.90;;;;;;5072936;28;20106;-72
2023/01/10 09:44:54;;;;;;;55.72;7.95;;;6.70;99.90;;;;;;5072882;28;20057;-70
2023/01/10 09:47:54;;;;;;;48.33;8.43;;;6.80;99.90;;;;;;5069512;28;20057;-70
2023/01/10 09:51:09;;;;;;;50.53;8.80;;;6.90;99.90;;;;;;5072874;28;20369;-70
2023/01/10 09:53:39;;;;;;;61.53;9.25;;;6.80;99.90;;;;;;5055485;28;20135;-71
2023/01/10 09:56:07;;;;;;;49.28;9.88;;;6.90;99.90;;;;;;5071767;28;20132;-71
2023/01/10 09:58:35;;;;;;;65.03;10.98;;;6.90;99.90;;;;;;5072917;28;20420;-71
2023/01/10 10:01:24;;;;;;;52.17;11.30;;;6.90;99.90;;;;;;5055194;28;20032;-70
2023/01/10 10:03:53;;;;;;;59.92;12.93;;;6.90;99.90;;;;;;5077135;28;20045;-71
2023/01/10 10:06:20;;;;;;;57.22;11.00;;;6.90;99.90;;;;;;5075172;28;20443;-71
2023/01/10 10:08:46;;;;;;;60.17;11.73;;;7.00;99.90;;;;;;5075468;28;20110;-71
2023/01/10 10:11:24;;;;;;;56.08;12.48;;;7.00;99.90;;;;;;5075535;28;20133;-71
2023/01/10 10:14:05;;;;;;;62.95;12.57;;;6.90;99.90;;;;;;5076443;28;20052;-71
2023/01/10 10:16:40;;;;;;;58.83;13.10;;;7.00;99.90;;;;;;5110359;28;20044;-71
2023/01/10 10:19:12;;;;;;;51.92;10.90;;;7.00;99.90;;;;;;5076977;28;20044;-71
2023/01/10 10:21:46;;;;;;;60.60;12.55;;;7.00;99.90;;;;;;5076418;28;20052;-71
2023/01/10 10:24:36;;;;;;;62.50;13.02;;;7.00;99.90;;;;;;5075635;28;20044;-70
2023/01/10 10:27:14;;;;;;;62.25;12.75;;;7.00;99.90;;;;;;5076277;28;20136;-73
2023/01/10 10:29:58;;;;;;;56.85;11.27;;;7.00;99.90;;;;;;5058929;28;20044;-71
2023/01/10 10:32:44;;;;;;;61.40;12.85;;;7.00;99.90;;;;;;5076289;28;20088;-71
2023/01/10 10:35:42;;;;;;;63.03;12.18;;;7.00;99.90;;;;;;5075166;28;20106;-71
2023/01/10 10:38:15;;;;;;;59.05;10.73;;;7.00;99.90;;;;;;5091284;28;20066;-71
2023/01/10 10:40:44;;;;;;;62.67;11.73;;;7.10;99.90;;;;;;5058222;28;20044;-71
2023/01/10 10:43:17;;;;;;;55.75;10.40;;;7.10;99.90;;;;;;5075179;28;20135;-72
2023/01/10 10:46:06;;;;;;;56.47;10.45;;;7.20;99.90;;;;;;5076576;28;20098;-72
2023/01/10 10:48:39;;;;;;;69.60;9.95;;;7.10;99.90;;;;;;5075676;28;20043;-71
2023/01/10 10:51:29;;;;;;;54.20;9.15;;;7.10;99.90;;;;;;5076445;28;20358;-73
2023/01/10 10:53:56;;;;;;;59.78;8.55;;;7.20;99.90;;;;;;5075825;28;20080;-71
2023/01/10 10:56:24;;;;;;;45.10;8.50;;;7.20;99.90;;;;;;5074667;28;20058;-71
2023/01/10 10:58:54;;;;;;;42.47;7.60;;;7.10;99.90;;;;;;5074421;28;20516;-72
2023/01/10 11:01:21;;;;;;;57.63;8.70;;;7.10;99.90;;;;;;5058769;28;20253;-71
2023/01/10 11:04:00;;;;;;;49.70;7.97;;;7.10;99.90;;;;;;5074471;28;20393;-71
2023/01/10 11:06:29;;;;;;;54.90;9.25;;;7.10;99.90;;;;;;5075470;28;20068;-71
2023/01/10 11:08:59;;;;;;;57.38;7.80;;;7.10;99.90;;;;;;5075440;28;20051;-71
2023/01/10 11:11:26;;;;;;;56.05;7.97;;;7.20;99.90;;;;;;5057911;28;20051;-71
2023/01/10 11:14:00;;;;;;;54.42;8.48;;;7.20;99.90;;;;;;5073317;28;20048;-71
2023/01/10 11:16:32;;;;;;;50.28;8.73;;;7.10;99.90;;;;;;5075462;28;20056;-72
2023/01/10 11:19:25;;;;;;;55.83;7.28;;;7.20;99.90;;;;;;5057782;28;20118;-72
2023/01/10 11:22:02;;;;;;;47.30;7.32;;;7.20;99.90;;;;;;5073805;28;20070;-72
2023/01/10 11:24:51;;;;;;;55.53;8.07;;;7.20;99.90;;;;;;5073947;28;20463;-71
2023/01/10 11:27:20;;;;;;;39.22;7.13;;;7.20;99.90;;;;;;5074568;28;20396;-71
2023/01/10 11:29:52;;;;;;;47.80;7.35;;;7.20;99.90;;;;;;5074834;28;20511;-70
2023/01/10 11:32:47;;;;;;;53.45;7.20;;;7.20;99.90;;;;;;5075130;28;20050;-70
2023/01/10 11:35:22;;;;;;;58.75;7.95;;;7.10;99.90;;;;;;5073828;28;20045;-72
2023/01/10 11:38:01;;;;;;;52.22;6.65;;;7.10;99.90;;;;;;5057286;28;20040;-72
2023/01/10 11:40:29;;;;;;;42.58;5.28;;;7.20;99.90;;;;;;5074061;28;20052;-72
2023/01/10 11:42:56;;;;;;;50.97;7.43;;;7.20;99.90;;;;;;5074653;28;20148;-71
2023/01/10 11:45:31;;;;;;;48.83;5.47;;;7.20;99.90;;;;;;5073630;28;20053;-70
2023/01/10 11:48:07;;;;;;;50.88;7.05;;;7.20;99.90;;;;;;5073696;28;20056;-71
2023/01/10 11:50:44;;;;;;;58.57;7.17;;;7.10;99.90;;;;;;5074892;28;20132;-71
2023/01/10 11:53:37;;;;;;;42.40;5.55;;;7.10;99.90;;;;;;5073473;28;20127;-71
2023/01/10 11:56:04;;;;;;;49.13;6.90;;;7.10;99.90;;;;;;5073396;28;20400;-72
2023/01/10 11:58:32;;;;;;;45.83;5.60;;;7.10;99.90;;;;;;5091325;28;20036;-71
2023/01/10 12:00:58;;;;;;;48.80;7.68;;;7.10;99.90;;;;;;5056187;28;20048;-71
2023/01/10 12:03:29;;;;;;;53.60;6.65;;;7.10;99.90;;;;;;5073858;28;20127;-71
2023/01/10 12:06:13;;;;;;;49.40;5.90;;;7.00;99.90;;;;;;5056904;28;20443;-73
2023/01/10 12:08:43;;;;;;;65.20;6.40;;;7.10;99.90;;;;;;5074777;28;20088;-72
2023/01/10 12:11:12;;;;;;;44.95;5.88;;;7.00;99.90;;;;;;5073787;28;20049;-71
2023/01/10 12:13:53;;;;;;;51.03;7.57;;;7.00;99.90;;;;;;5073101;28;20048;-72
2023/01/10 12:16:30;;;;;;;46.90;6.68;;;6.90;99.90;;;;;;5073220;28;20051;-71
2023/01/10 12:19:03;;;;;;;40.28;6.95;;;6.90;99.90;;;;;;5073071;28;20062;-71
2023/01/10 12:21:43;;;;;;;48.88;7.38;;;6.90;99.90;;;;;;5073153;28;20048;-71
2023/01/10 12:24:23;;;;;;;50.60;6.30;;;6.80;99.90;;;;;;5089738;28;20080;-73
2023/01/10 12:26:52;;;;;;;49.75;7.78;;;6.80;99.90;;;;;;5073507;28;20049;-73
2023/01/10 12:29:26;;;;;;;39.08;6.95;;;6.80;99.90;;;;;;5072848;28;20051;-72
2023/01/10 12:31:54;;;;;;;44.40;7.18;;;6.70;99.90;;;;;;5073378;28;20056;-73
2023/01/10 12:34:25;;;;;;;44.15;8.75;;;6.70;99.90;;;;;;5072819;28;20049;-71
2023/01/10 12:37:03;;;;;;;51.92;7.53;;;6.70;99.90;;;;;;5074059;28;20048;-73
2023/01/10 12:39:34;;;;;;;60.38;9.25;;;6.80;99.90;;;;;;5072675;28;20044;-71
2023/01/10 12:45:09;;;;;;;50.08;6.40;;;6.80;99.90;;;;;;5073828;28;20056;-70
2023/01/10 12:47:54;;;;;;;45.35;6.95;;;6.80;99.90;;;;;;5074096;28;20049;-72
2023/01/10 12:50:31;;;;;;;36.97;7.03;;;6.80;99.90;;;;;;5073503;28;20067;-71
2023/01/10 12:53:02;;;;;;;43.50;6.35;;;6.90;99.90;;;;;;5073031;28;20612;-71
2023/01/10 12:55:43;;;;;;;65.50;5.85;;;6.90;99.90;;;;;;5073660;28;20052;-71
2023/01/10 12:58:22;;;;;;;43.72;6.50;;;6.80;99.90;;;;;;5072820;28;20048;-70
2023/01/10 13:00:58;;;;;;;53.03;6.40;;;6.70;99.90;;;;;;5072593;28;20037;-71
2023/01/10 13:03:29;;;;;;;45.50;5.03;;;6.80;99.90;;;;;;5072848;28;20048;-72
2023/01/10 13:05:57;;;;;;;55.17;6.55;;;6.80;99.90;;;;;;5073590;28;20044;-70
2023/01/10 13:08:25;;;;;;;65.15;6.55;;;6.70;99.90;;;;;;5074215;28;20156;-70
2023/01/10 13:10:54;;;;;;;44.72;5.47;;;6.80;99.90;;;;;;5073443;28;20040;-70
2023/01/10 13:13:37;;;;;;;59.92;6.90;;;6.80;99.90;;;;;;5073048;28;20109;-71
2023/01/10 13:16:44;;;;;;;49.30;7.55;;;6.70;99.90;;;;;;5073460;28;20049;-72
2023/01/10 13:19:10;;;;;;;51.67;7.13;;;6.70;99.90;;;;;;5061984;28;20048;-72